sensor_id;sensor_type;location;lat;lon;timestamp;temperature;humidity
2202;DHT22;1107;48.654;9.250;2022-10-16T00:00:41;15.80;1.00
2202;DHT22;1107;48.654;9.250;2022-10-16T00:03:09;15.80;1.00
2202;DHT22;1107;48.654;9.250;2022-10-16T00:05:41;15.80;1.00
2202;DHT22;1107;48.654;9.250;2022-10-16T00:08:10;15.70;1.00
2202;DHT22;1107;48.654;9.250;2022-10-16T00:10:39;15.70;1.00
2202;DHT22;1107;48.654;9.250;2022-10-16T00:13:06;15.70;1.00
2202;DHT22;1107;48.654;9.250;2022-10-16T00:15:34;15.70;1.00
2202;DHT22;1107;48.654;9.250;2022-10-16T00:18:03;15.70;1.00
2202;DHT22;1107;48.654;9.250;2022-10-16T00:20:33;15.70;1.00
2202;DHT22;1107;48.654;9.250;2022-10-16T00:23:00;15.70;1.00
2202;DHT22;1107;48.654;9.250;2022-10-16T00:25:27;15.60;1.00
2202;DHT22;1107;48.654;9.250;2022-10-16T00:27:55;15.50;1.00
2202;DHT22;1107;48.654;9.250;2022-10-16T00:30:22;15.50;1.00
2202;DHT22;1107;48.654;9.250;2022-10-16T00:32:49;15.50;1.00
2202;DHT22;1107;48.654;9.250;2022-10-16T00:35:16;15.40;13.20
2202;DHT22;1107;48.654;9.250;2022-10-16T00:37:43;15.40;22.90
2202;DHT22;1107;48.654;9.250;2022-10-16T00:40:10;15.40;17.70
2202;DHT22;1107;48.654;9.250;2022-10-16T00:42:38;15.40;19.10
2202;DHT22;1107;48.654;9.250;2022-10-16T00:45:09;15.40;25.00
2202;DHT22;1107;48.654;9.250;2022-10-16T00:47:38;15.40;22.20
2202;DHT22;1107;48.654;9.250;2022-10-16T00:50:09;15.40;21.00
2202;DHT22;1107;48.654;9.250;2022-10-16T00:52:40;15.40;19.80
2202;DHT22;1107;48.654;9.250;2022-10-16T00:55:09;15.30;18.80
2202;DHT22;1107;48.654;9.250;2022-10-16T00:57:36;15.40;21.40
2202;DHT22;1107;48.654;9.250;2022-10-16T01:00:05;15.40;14.60
2202;DHT22;1107;48.654;9.250;2022-10-16T01:02:34;15.40;9.50
2202;DHT22;1107;48.654;9.250;2022-10-16T01:05:01;15.40;3.70
2202;DHT22;1107;48.654;9.250;2022-10-16T01:07:36;15.40;7.60
2202;DHT22;1107;48.654;9.250;2022-10-16T01:10:10;15.40;11.30
2202;DHT22;1107;48.654;9.250;2022-10-16T01:12:42;15.40;11.10
2202;DHT22;1107;48.654;9.250;2022-10-16T01:15:17;15.40;11.00
2202;DHT22;1107;48.654;9.250;2022-10-16T01:17:49;15.40;9.10
2202;DHT22;1107;48.654;9.250;2022-10-16T01:20:26;15.40;19.40
2202;DHT22;1107;48.654;9.250;2022-10-16T01:23:03;15.30;14.50
2202;DHT22;1107;48.654;9.250;2022-10-16T01:25:39;15.30;20.60
2202;DHT22;1107;48.654;9.250;2022-10-16T01:28:15;15.30;27.00
2202;DHT22;1107;48.654;9.250;2022-10-16T01:30:44;15.30;31.20
2202;DHT22;1107;48.654;9.250;2022-10-16T01:33:16;15.30;39.70
2202;DHT22;1107;48.654;9.250;2022-10-16T01:35:47;15.30;50.20
2202;DHT22;1107;48.654;9.250;2022-10-16T01:38:17;15.30;46.10
2202;DHT22;1107;48.654;9.250;2022-10-16T01:40:51;15.30;46.70
2202;DHT22;1107;48.654;9.250;2022-10-16T01:43:22;15.30;43.80
2202;DHT22;1107;48.654;9.250;2022-10-16T01:45:52;15.30;48.80
2202;DHT22;1107;48.654;9.250;2022-10-16T01:48:20;15.20;49.90
2202;DHT22;1107;48.654;9.250;2022-10-16T01:50:54;15.20;62.40
2202;DHT22;1107;48.654;9.250;2022-10-16T01:53:22;15.20;57.10
2202;DHT22;1107;48.654;9.250;2022-10-16T01:55:52;15.20;58.80
2202;DHT22;1107;48.654;9.250;2022-10-16T01:58:24;15.20;67.50
2202;DHT22;1107;48.654;9.250;2022-10-16T02:00:52;15.20;75.50
2202;DHT22;1107;48.654;9.250;2022-10-16T02:03:21;15.20;60.40
2202;DHT22;1107;48.654;9.250;2022-10-16T02:05:52;15.20;88.70
2202;DHT22;1107;48.654;9.250;2022-10-16T02:08:20;15.20;85.50
2202;DHT22;1107;48.654;9.250;2022-10-16T02:10:48;15.30;76.30
2202;DHT22;1107;48.654;9.250;2022-10-16T02:13:19;15.20;83.60
2202;DHT22;1107;48.654;9.250;2022-10-16T02:15:50;15.20;79.50
2202;DHT22;1107;48.654;9.250;2022-10-16T02:18:17;15.30;88.40
2202;DHT22;1107;48.654;9.250;2022-10-16T02:20:50;15.20;91.80
2202;DHT22;1107;48.654;9.250;2022-10-16T02:23:24;15.20;99.90
2202;DHT22;1107;48.654;9.250;2022-10-16T02:25:55;15.20;99.90
2202;DHT22;1107;48.654;9.250;2022-10-16T02:28:26;15.10;99.90
2202;DHT22;1107;48.654;9.250;2022-10-16T02:30:58;15.10;99.90
2202;DHT22;1107;48.654;9.250;2022-10-16T02:33:27;15.10;99.90
2202;DHT22;1107;48.654;9.250;2022-10-16T02:35:55;15.10;99.90
2202;DHT22;1107;48.654;9.250;2022-10-16T02:38:23;15.10;99.90
2202;DHT22;1107;48.654;9.250;2022-10-16T02:40:51;15.10;99.90
2202;DHT22;1107;48.654;9.250;2022-10-16T02:43:19;15.10;99.90
2202;DHT22;1107;48.654;9.250;2022-10-16T02:45:46;15.10;99.90
2202;DHT22;1107;48.654;9.250;2022-10-16T02:48:14;15.10;99.90
2202;DHT22;1107;48.654;9.250;2022-10-16T02:50:41;15.10;99.90
2202;DHT22;1107;48.654;9.250;2022-10-16T02:53:08;15.00;99.90
2202;DHT22;1107;48.654;9.250;2022-10-16T02:55:35;15.00;99.90
2202;DHT22;1107;48.654;9.250;2022-10-16T02:58:02;14.90;99.90
2202;DHT22;1107;48.654;9.250;2022-10-16T03:00:29;14.90;99.90
2202;DHT22;1107;48.654;9.250;2022-10-16T03:02:56;14.90;99.90
2202;DHT22;1107;48.654;9.250;2022-10-16T03:05:24;14.80;99.90
2202;DHT22;1107;48.654;9.250;2022-10-16T03:07:51;14.80;99.90
2202;DHT22;1107;48.654;9.250;2022-10-16T03:10:19;14.80;99.90
2202;DHT22;1107;48.654;9.250;2022-10-16T03:12:46;14.90;99.90
2202;DHT22;1107;48.654;9.250;2022-10-16T03:15:13;14.90;99.90
2202;DHT22;1107;48.654;9.250;2022-10-16T03:17:40;14.90;99.90
2202;DHT22;1107;48.654;9.250;2022-10-16T03:20:07;14.90;99.90
2202;DHT22;1107;48.654;9.250;2022-10-16T03:22:35;15.00;99.90
2202;DHT22;1107;48.654;9.250;2022-10-16T03:25:03;15.00;89.10
2202;DHT22;1107;48.654;9.250;2022-10-16T03:27:30;15.00;70.30
2202;DHT22;1107;48.654;9.250;2022-10-16T03:29:57;15.00;57.00
2202;DHT22;1107;48.654;9.250;2022-10-16T03:32:24;15.00;37.60
2202;DHT22;1107;48.654;9.250;2022-10-16T03:34:51;15.00;36.10
2202;DHT22;1107;48.654;9.250;2022-10-16T03:37:20;15.10;20.20
2202;DHT22;1107;48.654;9.250;2022-10-16T03:39:48;15.10;12.30
2202;DHT22;1107;48.654;9.250;2022-10-16T03:42:15;15.10;3.90
2202;DHT22;1107;48.654;9.250;2022-10-16T03:44:42;15.10;1.00
2202;DHT22;1107;48.654;9.250;2022-10-16T03:47:09;15.10;1.00
2202;DHT22;1107;48.654;9.250;2022-10-16T03:49:36;15.20;1.00
2202;DHT22;1107;48.654;9.250;2022-10-16T03:52:03;15.20;1.00
2202;DHT22;1107;48.654;9.250;2022-10-16T03:54:30;15.20;1.00
2202;DHT22;1107;48.654;9.250;2022-10-16T03:56:58;15.20;1.00
2202;DHT22;1107;48.654;9.250;2022-10-16T03:59:25;15.30;1.00
2202;DHT22;1107;48.654;9.250;2022-10-16T04:01:52;15.20;1.00
2202;DHT22;1107;48.654;9.250;2022-10-16T04:04:19;15.20;1.00
2202;DHT22;1107;48.654;9.250;2022-10-16T04:06:46;15.20;1.00
2202;DHT22;1107;48.654;9.250;2022-10-16T04:09:13;15.20;1.00
2202;DHT22;1107;48.654;9.250;2022-10-16T04:11:40;15.30;1.00
2202;DHT22;1107;48.654;9.250;2022-10-16T04:14:08;15.30;1.00
2202;DHT22;1107;48.654;9.250;2022-10-16T04:16:35;15.30;1.00
2202;DHT22;1107;48.654;9.250;2022-10-16T04:19:02;15.20;1.00
2202;DHT22;1107;48.654;9.250;2022-10-16T04:21:29;15.30;1.00
2202;DHT22;1107;48.654;9.250;2022-10-16T04:23:56;15.20;1.00
2202;DHT22;1107;48.654;9.250;2022-10-16T04:26:23;15.30;1.00
2202;DHT22;1107;48.654;9.250;2022-10-16T04:28:50;15.30;1.00
2202;DHT22;1107;48.654;9.250;2022-10-16T04:31:18;15.30;1.00
2202;DHT22;1107;48.654;9.250;2022-10-16T04:33:45;15.30;1.00
2202;DHT22;1107;48.654;9.250;2022-10-16T04:36:12;15.30;1.00
2202;DHT22;1107;48.654;9.250;2022-10-16T04:38:39;15.30;1.00
2202;DHT22;1107;48.654;9.250;2022-10-16T04:41:07;15.30;1.00
2202;DHT22;1107;48.654;9.250;2022-10-16T04:43:34;15.20;1.00
2202;DHT22;1107;48.654;9.250;2022-10-16T04:46:01;15.20;1.00
2202;DHT22;1107;48.654;9.250;2022-10-16T04:48:31;15.20;1.00
2202;DHT22;1107;48.654;9.250;2022-10-16T04:50:58;15.20;1.00
2202;DHT22;1107;48.654;9.250;2022-10-16T04:53:25;15.10;1.00
2202;DHT22;1107;48.654;9.250;2022-10-16T04:55:52;15.10;1.00
2202;DHT22;1107;48.654;9.250;2022-10-16T04:58:19;15.10;6.80
2202;DHT22;1107;48.654;9.250;2022-10-16T05:00:46;15.10;10.30
2202;DHT22;1107;48.654;9.250;2022-10-16T05:03:13;15.10;6.20
2202;DHT22;1107;48.654;9.250;2022-10-16T05:05:44;15.10;14.80
2202;DHT22;1107;48.654;9.250;2022-10-16T05:08:12;15.10;16.30
2202;DHT22;1107;48.654;9.250;2022-10-16T05:10:40;15.00;28.70
2202;DHT22;1107;48.654;9.250;2022-10-16T05:13:07;15.00;35.60
2202;DHT22;1107;48.654;9.250;2022-10-16T05:15:34;15.00;39.90
2202;DHT22;1107;48.654;9.250;2022-10-16T05:18:01;15.00;48.80
2202;DHT22;1107;48.654;9.250;2022-10-16T05:20:29;15.00;50.60
2202;DHT22;1107;48.654;9.250;2022-10-16T05:22:57;15.00;63.90
2202;DHT22;1107;48.654;9.250;2022-10-16T05:25:24;15.00;92.90
2202;DHT22;1107;48.654;9.250;2022-10-16T05:27:51;14.90;99.90
2202;DHT22;1107;48.654;9.250;2022-10-16T05:30:18;14.80;99.90
2202;DHT22;1107;48.654;9.250;2022-10-16T05:32:47;14.80;99.90
2202;DHT22;1107;48.654;9.250;2022-10-16T05:35:15;14.70;99.90
2202;DHT22;1107;48.654;9.250;2022-10-16T05:37:42;14.70;99.90
2202;DHT22;1107;48.654;9.250;2022-10-16T05:40:11;14.70;99.90
2202;DHT22;1107;48.654;9.250;2022-10-16T05:42:38;14.70;99.90
2202;DHT22;1107;48.654;9.250;2022-10-16T05:45:06;14.70;99.90
2202;DHT22;1107;48.654;9.250;2022-10-16T05:47:35;14.70;99.90
2202;DHT22;1107;48.654;9.250;2022-10-16T05:50:02;14.70;97.20
2202;DHT22;1107;48.654;9.250;2022-10-16T05:52:29;14.80;64.60
2202;DHT22;1107;48.654;9.250;2022-10-16T05:54:56;14.80;36.90
2202;DHT22;1107;48.654;9.250;2022-10-16T05:57:25;14.90;19.80
2202;DHT22;1107;48.654;9.250;2022-10-16T05:59:51;14.90;16.90
2202;DHT22;1107;48.654;9.250;2022-10-16T06:02:19;15.00;27.00
2202;DHT22;1107;48.654;9.250;2022-10-16T06:04:46;15.00;29.00
2202;DHT22;1107;48.654;9.250;2022-10-16T06:07:12;15.00;25.20
2202;DHT22;1107;48.654;9.250;2022-10-16T06:09:39;15.10;21.10
2202;DHT22;1107;48.654;9.250;2022-10-16T06:12:06;15.10;18.70
2202;DHT22;1107;48.654;9.250;2022-10-16T06:14:35;15.10;26.90
2202;DHT22;1107;48.654;9.250;2022-10-16T06:17:02;15.10;44.30
2202;DHT22;1107;48.654;9.250;2022-10-16T06:19:28;15.10;54.20
2202;DHT22;1107;48.654;9.250;2022-10-16T06:21:57;15.10;44.50
2202;DHT22;1107;48.654;9.250;2022-10-16T06:24:24;15.20;36.40
2202;DHT22;1107;48.654;9.250;2022-10-16T06:26:51;15.20;31.10
2202;DHT22;1107;48.654;9.250;2022-10-16T06:29:18;15.40;9.90
2202;DHT22;1107;48.654;9.250;2022-10-16T06:31:46;15.50;1.00
2202;DHT22;1107;48.654;9.250;2022-10-16T06:34:13;15.60;1.00
2202;DHT22;1107;48.654;9.250;2022-10-16T06:36:40;15.70;1.00
2202;DHT22;1107;48.654;9.250;2022-10-16T06:39:09;15.80;1.00
2202;DHT22;1107;48.654;9.250;2022-10-16T06:41:35;15.90;1.00
2202;DHT22;1107;48.654;9.250;2022-10-16T06:44:05;16.10;1.00
2202;DHT22;1107;48.654;9.250;2022-10-16T06:46:33;16.20;1.00
2202;DHT22;1107;48.654;9.250;2022-10-16T06:49:02;16.30;1.00
2202;DHT22;1107;48.654;9.250;2022-10-16T06:51:29;16.40;1.00
2202;DHT22;1107;48.654;9.250;2022-10-16T06:53:57;16.40;1.00
2202;DHT22;1107;48.654;9.250;2022-10-16T06:56:26;16.50;1.00
2202;DHT22;1107;48.654;9.250;2022-10-16T06:58:55;16.40;1.00
2202;DHT22;1107;48.654;9.250;2022-10-16T07:01:23;16.30;1.00
2202;DHT22;1107;48.654;9.250;2022-10-16T07:03:50;16.20;1.00
2202;DHT22;1107;48.654;9.250;2022-10-16T07:06:21;16.10;1.00
2202;DHT22;1107;48.654;9.250;2022-10-16T07:08:48;16.00;1.00
2202;DHT22;1107;48.654;9.250;2022-10-16T07:11:17;16.00;1.00
2202;DHT22;1107;48.654;9.250;2022-10-16T07:13:45;16.00;1.00
2202;DHT22;1107;48.654;9.250;2022-10-16T07:16:15;16.00;1.00
2202;DHT22;1107;48.654;9.250;2022-10-16T07:18:42;16.10;1.00
2202;DHT22;1107;48.654;9.250;2022-10-16T07:21:13;16.10;1.00
2202;DHT22;1107;48.654;9.250;2022-10-16T07:23:42;16.20;1.00
2202;DHT22;1107;48.654;9.250;2022-10-16T07:26:09;16.30;1.00
2202;DHT22;1107;48.654;9.250;2022-10-16T07:28:37;16.30;1.00
2202;DHT22;1107;48.654;9.250;2022-10-16T07:31:06;16.40;1.00
2202;DHT22;1107;48.654;9.250;2022-10-16T07:33:34;16.40;1.00
2202;DHT22;1107;48.654;9.250;2022-10-16T07:36:02;16.50;1.00
2202;DHT22;1107;48.654;9.250;2022-10-16T07:38:28;16.50;1.00
2202;DHT22;1107;48.654;9.250;2022-10-16T07:40:58;16.50;1.00
2202;DHT22;1107;48.654;9.250;2022-10-16T07:43:25;16.50;1.00
2202;DHT22;1107;48.654;9.250;2022-10-16T07:45:52;16.60;1.00
2202;DHT22;1107;48.654;9.250;2022-10-16T07:48:20;16.60;1.00
2202;DHT22;1107;48.654;9.250;2022-10-16T07:50:47;16.60;1.00
2202;DHT22;1107;48.654;9.250;2022-10-16T07:53:15;16.60;1.00
2202;DHT22;1107;48.654;9.250;2022-10-16T07:55:42;16.60;1.00
2202;DHT22;1107;48.654;9.250;2022-10-16T07:58:10;16.60;99.90
2202;DHT22;1107;48.654;9.250;2022-10-16T08:00:37;16.60;1.00
2202;DHT22;1107;48.654;9.250;2022-10-16T08:03:04;16.70;1.00
2202;DHT22;1107;48.654;9.250;2022-10-16T08:05:32;16.70;1.00
2202;DHT22;1107;48.654;9.250;2022-10-16T08:08:00;16.70;1.00
2202;DHT22;1107;48.654;9.250;2022-10-16T08:10:29;16.70;1.00
2202;DHT22;1107;48.654;9.250;2022-10-16T08:12:57;16.70;1.00
2202;DHT22;1107;48.654;9.250;2022-10-16T08:15:25;16.70;1.00
2202;DHT22;1107;48.654;9.250;2022-10-16T08:17:57;16.70;1.00
2202;DHT22;1107;48.654;9.250;2022-10-16T08:20:25;16.70;1.00
2202;DHT22;1107;48.654;9.250;2022-10-16T08:22:52;16.80;99.90
2202;DHT22;1107;48.654;9.250;2022-10-16T08:25:19;17.00;99.90
2202;DHT22;1107;48.654;9.250;2022-10-16T08:27:46;17.10;1.00
2202;DHT22;1107;48.654;9.250;2022-10-16T08:30:14;17.20;99.90
2202;DHT22;1107;48.654;9.250;2022-10-16T08:32:42;17.40;99.90
2202;DHT22;1107;48.654;9.250;2022-10-16T08:35:09;17.70;99.90
2202;DHT22;1107;48.654;9.250;2022-10-16T08:37:37;17.90;1.00
2202;DHT22;1107;48.654;9.250;2022-10-16T08:40:06;18.10;99.90
2202;DHT22;1107;48.654;9.250;2022-10-16T08:42:47;18.20;97.40
2202;DHT22;1107;48.654;9.250;2022-10-16T08:45:29;18.40;14.30
2202;DHT22;1107;48.654;9.250;2022-10-16T08:48:08;18.30;1.00
2202;DHT22;1107;48.654;9.250;2022-10-16T08:50:39;18.10;1.00
2202;DHT22;1107;48.654;9.250;2022-10-16T08:53:09;18.10;1.00
2202;DHT22;1107;48.654;9.250;2022-10-16T08:55:43;18.00;1.00
2202;DHT22;1107;48.654;9.250;2022-10-16T08:58:15;17.90;1.00
2202;DHT22;1107;48.654;9.250;2022-10-16T09:00:44;17.90;1.00
2202;DHT22;1107;48.654;9.250;2022-10-16T09:03:22;17.80;1.00
2202;DHT22;1107;48.654;9.250;2022-10-16T09:06:15;17.90;99.90
2202;DHT22;1107;48.654;9.250;2022-10-16T09:08:53;18.00;1.00
2202;DHT22;1107;48.654;9.250;2022-10-16T09:11:27;18.30;1.00
2202;DHT22;1107;48.654;9.250;2022-10-16T09:14:04;18.50;1.00
2202;DHT22;1107;48.654;9.250;2022-10-16T09:16:36;18.50;99.90
2202;DHT22;1107;48.654;9.250;2022-10-16T09:19:12;18.60;1.00
2202;DHT22;1107;48.654;9.250;2022-10-16T09:21:43;18.60;1.00
2202;DHT22;1107;48.654;9.250;2022-10-16T09:24:13;18.60;1.00
2202;DHT22;1107;48.654;9.250;2022-10-16T09:26:42;18.60;1.00
2202;DHT22;1107;48.654;9.250;2022-10-16T09:29:11;18.70;99.90
2202;DHT22;1107;48.654;9.250;2022-10-16T09:31:38;18.70;1.00
2202;DHT22;1107;48.654;9.250;2022-10-16T09:34:17;18.90;1.00
2202;DHT22;1107;48.654;9.250;2022-10-16T09:36:47;19.30;1.00
2202;DHT22;1107;48.654;9.250;2022-10-16T09:39:14;19.50;99.90
2202;DHT22;1107;48.654;9.250;2022-10-16T09:41:43;19.70;1.00
2202;DHT22;1107;48.654;9.250;2022-10-16T09:44:19;20.20;95.20
2202;DHT22;1107;48.654;9.250;2022-10-16T09:46:47;20.60;1.00
2202;DHT22;1107;48.654;9.250;2022-10-16T09:49:23;21.20;99.90
2202;DHT22;1107;48.654;9.250;2022-10-16T09:51:50;21.90;99.90
2202;DHT22;1107;48.654;9.250;2022-10-16T09:54:20;21.60;1.00
2202;DHT22;1107;48.654;9.250;2022-10-16T09:56:48;21.20;41.50
2202;DHT22;1107;48.654;9.250;2022-10-16T09:59:18;20.70;99.90
2202;DHT22;1107;48.654;9.250;2022-10-16T10:01:47;21.10;99.90
2202;DHT22;1107;48.654;9.250;2022-10-16T10:04:15;21.80;1.00
2202;DHT22;1107;48.654;9.250;2022-10-16T10:06:45;22.10;1.00
2202;DHT22;1107;48.654;9.250;2022-10-16T10:09:20;23.50;1.00
2202;DHT22;1107;48.654;9.250;2022-10-16T10:11:50;23.90;1.00
2202;DHT22;1107;48.654;9.250;2022-10-16T10:14:30;24.60;1.00
2202;DHT22;1107;48.654;9.250;2022-10-16T10:17:12;26.10;1.00
2202;DHT22;1107;48.654;9.250;2022-10-16T10:19:41;26.40;99.90
2202;DHT22;1107;48.654;9.250;2022-10-16T10:22:26;26.80;99.90
2202;DHT22;1107;48.654;9.250;2022-10-16T10:25:12;26.50;99.90
2202;DHT22;1107;48.654;9.250;2022-10-16T10:27:51;26.00;99.90
2202;DHT22;1107;48.654;9.250;2022-10-16T10:30:26;27.30;99.90
2202;DHT22;1107;48.654;9.250;2022-10-16T10:33:09;28.30;99.90
2202;DHT22;1107;48.654;9.250;2022-10-16T10:35:45;27.70;99.90
2202;DHT22;1107;48.654;9.250;2022-10-16T10:38:33;28.40;99.90
2202;DHT22;1107;48.654;9.250;2022-10-16T10:41:17;29.00;99.90
2202;DHT22;1107;48.654;9.250;2022-10-16T10:43:59;28.20;99.90
2202;DHT22;1107;48.654;9.250;2022-10-16T10:46:34;28.50;99.90
2202;DHT22;1107;48.654;9.250;2022-10-16T10:49:16;28.90;99.90
2202;DHT22;1107;48.654;9.250;2022-10-16T10:51:55;29.00;99.90
2202;DHT22;1107;48.654;9.250;2022-10-16T10:54:28;28.70;99.90
2202;DHT22;1107;48.654;9.250;2022-10-16T10:57:02;28.40;99.90
2202;DHT22;1107;48.654;9.250;2022-10-16T10:59:50;29.30;99.90
2202;DHT22;1107;48.654;9.250;2022-10-16T11:02:27;29.40;99.90
2202;DHT22;1107;48.654;9.250;2022-10-16T11:05:09;29.90;99.90
2202;DHT22;1107;48.654;9.250;2022-10-16T11:07:42;29.80;99.90
2202;DHT22;1107;48.654;9.250;2022-10-16T11:10:17;29.80;99.90
2202;DHT22;1107;48.654;9.250;2022-10-16T11:12:48;30.00;99.90
2202;DHT22;1107;48.654;9.250;2022-10-16T11:15:19;30.10;99.90
2202;DHT22;1107;48.654;9.250;2022-10-16T11:17:51;29.80;99.90
2202;DHT22;1107;48.654;9.250;2022-10-16T11:20:23;30.50;99.90
2202;DHT22;1107;48.654;9.250;2022-10-16T11:22:54;29.80;99.90
2202;DHT22;1107;48.654;9.250;2022-10-16T11:25:26;29.50;99.90
2202;DHT22;1107;48.654;9.250;2022-10-16T11:27:57;30.20;99.90
2202;DHT22;1107;48.654;9.250;2022-10-16T11:30:26;30.00;99.90
2202;DHT22;1107;48.654;9.250;2022-10-16T11:33:04;28.70;99.90
2202;DHT22;1107;48.654;9.250;2022-10-16T11:35:41;28.70;99.90
2202;DHT22;1107;48.654;9.250;2022-10-16T11:38:14;29.10;99.90
2202;DHT22;1107;48.654;9.250;2022-10-16T11:40:46;29.10;99.90
2202;DHT22;1107;48.654;9.250;2022-10-16T11:43:20;29.70;99.90
2202;DHT22;1107;48.654;9.250;2022-10-16T11:45:51;30.40;99.90
2202;DHT22;1107;48.654;9.250;2022-10-16T11:48:25;31.70;99.90
2202;DHT22;1107;48.654;9.250;2022-10-16T11:50:54;32.00;99.90
2202;DHT22;1107;48.654;9.250;2022-10-16T11:53:31;32.10;99.90
2202;DHT22;1107;48.654;9.250;2022-10-16T11:56:03;32.40;99.90
2202;DHT22;1107;48.654;9.250;2022-10-16T11:58:34;32.20;99.90
2202;DHT22;1107;48.654;9.250;2022-10-16T12:01:15;33.50;99.90
2202;DHT22;1107;48.654;9.250;2022-10-16T12:03:46;33.20;99.90
2202;DHT22;1107;48.654;9.250;2022-10-16T12:06:25;33.00;99.90
2202;DHT22;1107;48.654;9.250;2022-10-16T12:08:55;33.30;99.90
2202;DHT22;1107;48.654;9.250;2022-10-16T12:11:33;33.90;99.90
2202;DHT22;1107;48.654;9.250;2022-10-16T12:14:19;33.90;99.90
2202;DHT22;1107;48.654;9.250;2022-10-16T12:16:55;34.50;99.90
2202;DHT22;1107;48.654;9.250;2022-10-16T12:19:25;33.60;99.90
2202;DHT22;1107;48.654;9.250;2022-10-16T12:21:55;31.30;99.90
2202;DHT22;1107;48.654;9.250;2022-10-16T12:24:32;31.10;99.90
2202;DHT22;1107;48.654;9.250;2022-10-16T12:27:01;31.90;99.90
2202;DHT22;1107;48.654;9.250;2022-10-16T12:29:35;32.20;99.90
2202;DHT22;1107;48.654;9.250;2022-10-16T12:32:05;32.30;99.90
2202;DHT22;1107;48.654;9.250;2022-10-16T12:34:41;32.90;99.90
2202;DHT22;1107;48.654;9.250;2022-10-16T12:37:14;33.30;99.90
2202;DHT22;1107;48.654;9.250;2022-10-16T12:39:45;32.60;99.90
2202;DHT22;1107;48.654;9.250;2022-10-16T12:42:34;31.60;99.90
2202;DHT22;1107;48.654;9.250;2022-10-16T12:45:02;30.60;99.90
2202;DHT22;1107;48.654;9.250;2022-10-16T12:47:48;29.90;99.90
2202;DHT22;1107;48.654;9.250;2022-10-16T12:50:33;30.20;99.90
2202;DHT22;1107;48.654;9.250;2022-10-16T12:53:02;29.30;99.90
2202;DHT22;1107;48.654;9.250;2022-10-16T12:55:47;28.60;99.90
2202;DHT22;1107;48.654;9.250;2022-10-16T12:58:29;28.00;99.90
2202;DHT22;1107;48.654;9.250;2022-10-16T13:01:07;28.00;99.90
2202;DHT22;1107;48.654;9.250;2022-10-16T13:03:51;28.10;99.90
2202;DHT22;1107;48.654;9.250;2022-10-16T13:06:32;27.90;99.90
2202;DHT22;1107;48.654;9.250;2022-10-16T13:09:18;27.70;99.90
2202;DHT22;1107;48.654;9.250;2022-10-16T13:11:59;27.80;99.90
2202;DHT22;1107;48.654;9.250;2022-10-16T13:14:49;28.80;99.90
2202;DHT22;1107;48.654;9.250;2022-10-16T13:17:27;30.20;99.90
2202;DHT22;1107;48.654;9.250;2022-10-16T13:20:04;31.40;99.90
2202;DHT22;1107;48.654;9.250;2022-10-16T13:22:45;32.60;99.90
2202;DHT22;1107;48.654;9.250;2022-10-16T13:25:22;33.20;99.90
2202;DHT22;1107;48.654;9.250;2022-10-16T13:27:55;33.60;99.90
2202;DHT22;1107;48.654;9.250;2022-10-16T13:30:25;33.60;99.90
2202;DHT22;1107;48.654;9.250;2022-10-16T13:32:59;33.60;99.90
2202;DHT22;1107;48.654;9.250;2022-10-16T13:35:27;33.60;99.90
2202;DHT22;1107;48.654;9.250;2022-10-16T13:38:11;32.80;99.90
2202;DHT22;1107;48.654;9.250;2022-10-16T13:40:52;32.70;99.90
2202;DHT22;1107;48.654;9.250;2022-10-16T13:43:21;32.80;99.90
2202;DHT22;1107;48.654;9.250;2022-10-16T13:45:58;32.50;99.90
2202;DHT22;1107;48.654;9.250;2022-10-16T13:48:25;31.60;99.90
2202;DHT22;1107;48.654;9.250;2022-10-16T13:51:14;30.60;99.90
2202;DHT22;1107;48.654;9.250;2022-10-16T13:53:42;29.80;99.90
2202;DHT22;1107;48.654;9.250;2022-10-16T13:56:11;28.80;99.90
2202;DHT22;1107;48.654;9.250;2022-10-16T13:58:38;28.10;99.50
2202;DHT22;1107;48.654;9.250;2022-10-16T14:01:20;27.60;99.90
2202;DHT22;1107;48.654;9.250;2022-10-16T14:03:49;27.30;99.90
2202;DHT22;1107;48.654;9.250;2022-10-16T14:06:19;26.90;99.90
2202;DHT22;1107;48.654;9.250;2022-10-16T14:08:51;26.60;99.90
2202;DHT22;1107;48.654;9.250;2022-10-16T14:11:22;26.30;99.90
2202;DHT22;1107;48.654;9.250;2022-10-16T14:13:50;26.10;99.90
2202;DHT22;1107;48.654;9.250;2022-10-16T14:16:20;26.10;99.90
2202;DHT22;1107;48.654;9.250;2022-10-16T14:18:55;26.10;99.90
2202;DHT22;1107;48.654;9.250;2022-10-16T14:21:23;26.10;99.90
2202;DHT22;1107;48.654;9.250;2022-10-16T14:23:50;26.10;99.90
2202;DHT22;1107;48.654;9.250;2022-10-16T14:26:20;25.90;99.90
2202;DHT22;1107;48.654;9.250;2022-10-16T14:28:48;25.70;99.90
2202;DHT22;1107;48.654;9.250;2022-10-16T14:31:27;25.50;99.90
2202;DHT22;1107;48.654;9.250;2022-10-16T14:33:54;25.40;99.90
2202;DHT22;1107;48.654;9.250;2022-10-16T14:36:22;25.20;99.90
2202;DHT22;1107;48.654;9.250;2022-10-16T14:38:59;25.00;99.90
2202;DHT22;1107;48.654;9.250;2022-10-16T14:41:28;24.90;99.90
2202;DHT22;1107;48.654;9.250;2022-10-16T14:43:58;24.80;99.90
2202;DHT22;1107;48.654;9.250;2022-10-16T14:46:34;24.80;99.90
2202;DHT22;1107;48.654;9.250;2022-10-16T14:49:05;24.70;99.90
2202;DHT22;1107;48.654;9.250;2022-10-16T14:51:41;24.70;99.90
2202;DHT22;1107;48.654;9.250;2022-10-16T14:54:10;24.80;99.90
2202;DHT22;1107;48.654;9.250;2022-10-16T14:56:45;24.70;99.90
2202;DHT22;1107;48.654;9.250;2022-10-16T14:59:16;24.70;99.90
2202;DHT22;1107;48.654;9.250;2022-10-16T15:01:46;24.80;99.90
2202;DHT22;1107;48.654;9.250;2022-10-16T15:04:13;25.00;99.90
2202;DHT22;1107;48.654;9.250;2022-10-16T15:06:41;25.40;99.90
2202;DHT22;1107;48.654;9.250;2022-10-16T15:09:08;25.50;99.90
2202;DHT22;1107;48.654;9.250;2022-10-16T15:11:35;25.60;99.90
2202;DHT22;1107;48.654;9.250;2022-10-16T15:14:02;25.60;99.90
2202;DHT22;1107;48.654;9.250;2022-10-16T15:16:30;25.50;99.90
2202;DHT22;1107;48.654;9.250;2022-10-16T15:18:58;25.40;99.90
2202;DHT22;1107;48.654;9.250;2022-10-16T15:21:27;25.20;99.90
2202;DHT22;1107;48.654;9.250;2022-10-16T15:23:55;25.00;99.90
2202;DHT22;1107;48.654;9.250;2022-10-16T15:26:23;24.90;99.90
2202;DHT22;1107;48.654;9.250;2022-10-16T15:28:50;25.00;99.90
2202;DHT22;1107;48.654;9.250;2022-10-16T15:31:17;25.10;99.90
2202;DHT22;1107;48.654;9.250;2022-10-16T15:33:45;25.30;99.90
2202;DHT22;1107;48.654;9.250;2022-10-16T15:36:24;25.30;99.90
2202;DHT22;1107;48.654;9.250;2022-10-16T15:38:52;25.00;99.90
2202;DHT22;1107;48.654;9.250;2022-10-16T15:41:19;24.70;99.90
2202;DHT22;1107;48.654;9.250;2022-10-16T15:43:48;24.30;99.90
2202;DHT22;1107;48.654;9.250;2022-10-16T15:46:17;24.00;99.90
2202;DHT22;1107;48.654;9.250;2022-10-16T15:48:45;23.70;99.90
2202;DHT22;1107;48.654;9.250;2022-10-16T15:51:12;23.40;99.90
2202;DHT22;1107;48.654;9.250;2022-10-16T15:53:41;23.20;99.90
2202;DHT22;1107;48.654;9.250;2022-10-16T15:56:09;22.90;99.90
2202;DHT22;1107;48.654;9.250;2022-10-16T15:58:36;22.70;99.90
2202;DHT22;1107;48.654;9.250;2022-10-16T16:01:04;22.50;1.00
2202;DHT22;1107;48.654;9.250;2022-10-16T16:03:32;22.30;1.00
2202;DHT22;1107;48.654;9.250;2022-10-16T16:06:04;22.20;1.00
2202;DHT22;1107;48.654;9.250;2022-10-16T16:08:31;22.00;1.00
2202;DHT22;1107;48.654;9.250;2022-10-16T16:11:02;21.90;1.00
2202;DHT22;1107;48.654;9.250;2022-10-16T16:13:29;21.70;1.00
2202;DHT22;1107;48.654;9.250;2022-10-16T16:15:56;21.60;1.00
2202;DHT22;1107;48.654;9.250;2022-10-16T16:18:23;21.50;1.00
2202;DHT22;1107;48.654;9.250;2022-10-16T16:20:50;21.40;1.00
2202;DHT22;1107;48.654;9.250;2022-10-16T16:23:17;21.30;1.00
2202;DHT22;1107;48.654;9.250;2022-10-16T16:25:45;21.20;1.00
2202;DHT22;1107;48.654;9.250;2022-10-16T16:28:29;21.10;38.70